Time;durP1;ratioP1;P1;durP2;ratioP2;P2;SDS_P1;SDS_P2;PMS_P1;PMS_P2;Temp;Humidity;BMP_temperature;BMP_pressure;BME280_temperature;BME280_humidity;BME280_pressure;Samples;Min_cycle;Max_cycle;Signal;HPM_P1;HPM_P2
2023/12/08 00:00:28;;;;;;;17.23;8.48;;;2.50;99.90;;;;;;5030861;28;20060;-50
2023/12/08 00:02:54;;;;;;;21.70;9.45;;;2.70;99.90;;;;;;5030684;28;20424;-49
2023/12/08 00:05:19;;;;;;;20.50;9.45;;;2.50;99.90;;;;;;5030926;28;20182;-52
2023/12/08 00:07:45;;;;;;;17.60;8.77;;;2.50;99.90;;;;;;5029622;28;20034;-49
2023/12/08 00:10:11;;;;;;;18.42;8.02;;;2.70;99.90;;;;;;5030854;28;20057;-51
2023/12/08 00:12:37;;;;;;;18.67;9.45;;;2.50;99.90;;;;;;5030451;28;20033;-51
2023/12/08 00:15:03;;;;;;;19.25;9.50;;;2.60;99.90;;;;;;5030301;28;20493;-52
2023/12/08 00:17:28;;;;;;;21.65;9.77;;;2.70;99.90;;;;;;5030794;28;20088;-49
2023/12/08 00:19:54;;;;;;;16.60;8.82;;;2.70;99.90;;;;;;5029404;28;20114;-51
2023/12/08 00:22:20;;;;;;;17.70;9.07;;;2.50;99.90;;;;;;5030120;28;20089;-52
2023/12/08 00:24:46;;;;;;;18.48;8.70;;;2.50;99.90;;;;;;5030754;28;20044;-49
2023/12/08 00:27:12;;;;;;;16.75;8.35;;;2.70;99.90;;;;;;5028860;28;20374;-52
2023/12/08 00:29:38;;;;;;;20.08;9.95;;;2.50;99.90;;;;;;5030359;28;20386;-52
2023/12/08 00:32:04;;;;;;;19.85;9.93;;;2.70;99.90;;;;;;5027613;28;20049;-53
2023/12/08 00:34:30;;;;;;;22.17;10.13;;;2.50;99.90;;;;;;5030052;28;20037;-51
2023/12/08 00:36:55;;;;;;;17.80;8.85;;;2.50;99.90;;;;;;5030072;28;20125;-49
2023/12/08 00:39:22;;;;;;;20.63;9.13;;;3.20;99.90;;;;;;5029846;28;20481;-51
2023/12/08 00:41:47;;;;;;;19.05;10.13;;;2.60;99.90;;;;;;5030201;28;20083;-48
2023/12/08 00:44:13;;;;;;;19.95;9.50;;;3.10;99.90;;;;;;5033843;28;20029;-51
2023/12/08 00:46:39;;;;;;;19.05;9.38;;;2.70;99.90;;;;;;5034066;28;20052;-50
2023/12/08 00:49:04;;;;;;;20.40;10.25;;;2.70;99.90;;;;;;5034033;28;20037;-51
2023/12/08 00:51:30;;;;;;;19.17;9.05;;;2.40;99.90;;;;;;5033800;28;20120;-50
2023/12/08 00:53:55;;;;;;;19.92;10.45;;;2.50;99.90;;;;;;5034010;28;20048;-51
2023/12/08 00:56:21;;;;;;;19.33;9.93;;;2.50;99.90;;;;;;5034019;28;20101;-50
2023/12/08 00:58:47;;;;;;;25.88;9.90;;;2.40;99.90;;;;;;5033063;28;20616;-52
2023/12/08 01:01:13;;;;;;;17.40;9.65;;;2.50;99.90;;;;;;5033967;28;20047;-48
2023/12/08 01:03:38;;;;;;;20.08;9.50;;;2.40;99.90;;;;;;5033826;28;20030;-53
2023/12/08 01:06:04;;;;;;;21.23;9.85;;;2.60;99.90;;;;;;5033927;28;20717;-52
2023/12/08 01:08:30;;;;;;;20.02;9.98;;;2.50;99.90;;;;;;5033515;28;20470;-49
2023/12/08 01:10:55;;;;;;;18.15;9.55;;;2.70;99.90;;;;;;5033693;28;20552;-51
2023/12/08 01:13:21;;;;;;;20.20;9.65;;;2.40;99.90;;;;;;5033492;28;20144;-50
2023/12/08 01:15:47;;;;;;;19.88;10.48;;;2.50;99.90;;;;;;5033308;28;20061;-48
2023/12/08 01:18:13;;;;;;;20.60;9.55;;;2.40;99.90;;;;;;5033302;28;20084;-51
2023/12/08 01:20:39;;;;;;;20.73;10.90;;;2.70;99.90;;;;;;5033656;28;20065;-50
2023/12/08 01:23:04;;;;;;;21.45;10.40;;;2.40;99.90;;;;;;5032816;28;20045;-51
2023/12/08 01:25:30;;;;;;;21.10;10.52;;;2.90;99.90;;;;;;5033079;28;20033;-51
2023/12/08 01:27:56;;;;;;;19.85;9.68;;;2.60;99.90;;;;;;5033074;28;20378;-51
2023/12/08 01:30:23;;;;;;;20.80;10.13;;;2.50;99.90;;;;;;5032726;28;20037;-51
2023/12/08 01:32:48;;;;;;;19.80;10.15;;;2.80;99.90;;;;;;5029649;28;20488;-49
2023/12/08 01:35:14;;;;;;;20.33;10.02;;;2.70;99.90;;;;;;5031723;28;20034;-50
2023/12/08 01:37:40;;;;;;;23.40;10.15;;;2.80;99.90;;;;;;5032254;28;20178;-51
2023/12/08 01:40:06;;;;;;;24.17;10.50;;;2.70;99.90;;;;;;5032897;28;20474;-52
2023/12/08 01:42:32;;;;;;;20.08;10.32;;;2.70;99.90;;;;;;5031217;28;20054;-46
2023/12/08 01:44:58;;;;;;;21.67;10.48;;;2.60;99.90;;;;;;5033221;28;20033;-54
2023/12/08 01:47:23;;;;;;;20.48;10.52;;;2.50;99.90;;;;;;5030984;28;20044;-51
2023/12/08 01:49:51;;;;;;;23.40;10.75;;;2.70;99.90;;;;;;5033108;28;20033;-49
2023/12/08 01:52:22;;;;;;;22.48;10.85;;;2.60;99.90;;;;;;5033134;28;20045;-50
2023/12/08 01:54:53;;;;;;;21.83;11.10;;;2.60;99.90;;;;;;5032626;28;20099;-49
2023/12/08 01:57:19;;;;;;;22.45;11.02;;;2.70;99.90;;;;;;5032621;28;20038;-48
2023/12/08 01:59:47;;;;;;;22.83;11.02;;;2.40;99.90;;;;;;5032850;28;20068;-52
2023/12/08 02:02:13;;;;;;;21.17;10.32;;;2.60;99.90;;;;;;5028988;28;20049;-51
2023/12/08 02:04:44;;;;;;;23.17;10.63;;;3.70;99.90;;;;;;5032711;28;20038;-50
2023/12/08 02:07:11;;;;;;;20.55;10.25;;;2.60;99.90;;;;;;5032695;28;20039;-51
2023/12/08 02:09:36;;;;;;;20.77;10.80;;;2.90;99.90;;;;;;5032295;28;20103;-51
2023/12/08 02:12:04;;;;;;;22.33;10.65;;;2.40;99.90;;;;;;5032790;28;20042;-52
2023/12/08 02:14:30;;;;;;;19.38;10.55;;;2.40;99.90;;;;;;5032747;28;20451;-52
2023/12/08 02:17:02;;;;;;;20.35;10.45;;;2.40;99.90;;;;;;5032355;28;20080;-49
2023/12/08 02:19:30;;;;;;;22.75;10.32;;;2.40;99.90;;;;;;5032386;28;20041;-50
2023/12/08 02:21:56;;;;;;;22.63;10.18;;;2.70;99.90;;;;;;5032516;28;20051;-48
2023/12/08 02:24:22;;;;;;;21.15;11.05;;;2.50;99.90;;;;;;5032480;28;20029;-50
2023/12/08 02:26:49;;;;;;;21.83;10.75;;;2.70;99.90;;;;;;5032175;28;20124;-49
2023/12/08 02:29:15;;;;;;;23.73;11.00;;;2.80;99.90;;;;;;5032398;28;20500;-52
2023/12/08 02:31:45;;;;;;;20.05;9.95;;;2.40;99.90;;;;;;5032212;28;20045;-52
2023/12/08 02:34:16;;;;;;;22.45;11.57;;;2.50;99.90;;;;;;5032534;28;20140;-52
2023/12/08 02:36:45;;;;;;;22.30;11.73;;;2.40;99.90;;;;;;5032386;28;20473;-48
2023/12/08 02:39:12;;;;;;;28.88;11.93;;;2.50;99.90;;;;;;5030220;28;20120;-50
2023/12/08 02:41:38;;;;;;;21.30;11.05;;;2.40;99.90;;;;;;5032274;28;20397;-49
2023/12/08 02:44:04;;;;;;;24.60;11.70;;;2.50;99.90;;;;;;5031687;28;20037;-52
2023/12/08 02:46:29;;;;;;;25.05;11.25;;;2.70;99.90;;;;;;5029134;28;20041;-51
2023/12/08 02:48:55;;;;;;;24.92;10.85;;;2.50;99.90;;;;;;5030665;28;20444;-50
2023/12/08 02:51:21;;;;;;;21.98;11.20;;;2.30;99.90;;;;;;5031817;28;20071;-52
2023/12/08 02:53:46;;;;;;;23.80;11.80;;;2.50;99.90;;;;;;5031947;28;20099;-50
2023/12/08 02:56:12;;;;;;;26.45;11.60;;;2.50;99.90;;;;;;5031981;28;20095;-52
2023/12/08 02:58:38;;;;;;;21.73;10.63;;;2.60;99.90;;;;;;5031536;28;20037;-48
2023/12/08 03:01:04;;;;;;;25.48;11.82;;;2.00;99.90;;;;;;5031538;28;20033;-52
2023/12/08 03:03:29;;;;;;;24.25;11.90;;;2.50;99.90;;;;;;5031556;28;20045;-53
2023/12/08 03:05:55;;;;;;;26.63;11.90;;;2.30;99.90;;;;;;5030703;28;20037;-52
2023/12/08 03:08:20;;;;;;;29.50;13.13;;;1.80;99.90;;;;;;5031312;28;20037;-52
2023/12/08 03:10:46;;;;;;;27.92;12.00;;;2.50;99.90;;;;;;5030953;28;20077;-50
2023/12/08 03:13:12;;;;;;;26.38;13.35;;;2.40;99.90;;;;;;5031212;28;20467;-50
2023/12/08 03:15:37;;;;;;;26.05;11.95;;;1.80;99.90;;;;;;5031271;28;20119;-50
2023/12/08 03:18:03;;;;;;;28.10;12.65;;;2.40;99.90;;;;;;5031690;28;20111;-48
2023/12/08 03:20:29;;;;;;;30.00;12.30;;;2.40;99.90;;;;;;5029761;28;20040;-52
2023/12/08 03:22:55;;;;;;;26.13;12.70;;;2.30;99.90;;;;;;5031504;28;20484;-51
2023/12/08 03:25:21;;;;;;;26.65;13.18;;;2.20;99.90;;;;;;5031222;28;20052;-52
2023/12/08 03:27:47;;;;;;;26.10;11.82;;;2.30;99.90;;;;;;5031411;28;20122;-47
2023/12/08 03:30:13;;;;;;;30.70;13.68;;;1.70;99.90;;;;;;5031141;28;20045;-54
2023/12/08 03:32:38;;;;;;;26.98;12.30;;;2.40;99.90;;;;;;5030975;28;20037;-49
2023/12/08 03:35:05;;;;;;;27.48;13.05;;;1.90;99.90;;;;;;5031411;28;20477;-50
2023/12/08 03:37:30;;;;;;;29.02;13.00;;;1.90;99.90;;;;;;5031204;28;20554;-52
2023/12/08 03:39:56;;;;;;;27.17;13.00;;;1.60;99.90;;;;;;5030879;28;20124;-51
2023/12/08 03:42:22;;;;;;;31.60;13.20;;;1.70;99.90;;;;;;5031084;28;20131;-51
2023/12/08 03:44:47;;;;;;;30.52;13.88;;;1.70;99.90;;;;;;5031141;28;20050;-53
2023/12/08 03:47:13;;;;;;;32.03;13.23;;;2.20;99.90;;;;;;5028881;28;20045;-53
2023/12/08 03:49:39;;;;;;;29.33;13.07;;;1.70;99.90;;;;;;5030942;28;20124;-50
2023/12/08 03:52:04;;;;;;;27.80;12.77;;;1.70;99.90;;;;;;5031027;28;20109;-50
2023/12/08 03:54:30;;;;;;;33.67;13.80;;;1.70;99.90;;;;;;5029577;28;20385;-51
2023/12/08 03:56:56;;;;;;;29.23;13.60;;;1.60;99.90;;;;;;5030665;28;20054;-49
2023/12/08 03:59:22;;;;;;;30.77;13.63;;;1.80;99.90;;;;;;5030054;28;20059;-48
2023/12/08 04:01:51;;;;;;;29.92;13.73;;;2.30;99.90;;;;;;5029194;28;20124;-52
2023/12/08 04:04:17;;;;;;;29.73;13.05;;;2.30;99.90;;;;;;5030933;28;20071;-51
2023/12/08 04:06:42;;;;;;;30.65;12.90;;;1.80;99.90;;;;;;5030992;28;20064;-53
2023/12/08 04:09:08;;;;;;;29.58;12.60;;;1.80;99.90;;;;;;5030224;28;20048;-51
2023/12/08 04:11:34;;;;;;;30.77;13.15;;;2.10;99.90;;;;;;5028707;28;20063;-53
2023/12/08 04:13:59;;;;;;;30.30;13.05;;;2.10;99.90;;;;;;5030998;28;20056;-51
2023/12/08 04:16:25;;;;;;;29.77;13.63;;;1.80;99.90;;;;;;5030609;28;20061;-52
2023/12/08 04:18:51;;;;;;;30.42;13.50;;;2.20;99.90;;;;;;5033610;28;20045;-51
2023/12/08 04:21:19;;;;;;;29.05;13.40;;;1.60;99.90;;;;;;5034583;28;20539;-51
2023/12/08 04:23:45;;;;;;;32.60;12.70;;;2.40;99.90;;;;;;5034694;28;20124;-49
2023/12/08 04:26:11;;;;;;;31.95;13.57;;;1.60;99.90;;;;;;5033563;28;20516;-52
2023/12/08 04:28:40;;;;;;;34.72;13.40;;;1.80;99.90;;;;;;5034558;28;20048;-49
2023/12/08 04:31:05;;;;;;;31.45;14.20;;;1.60;99.90;;;;;;5034602;28;20096;-51
2023/12/08 04:33:32;;;;;;;29.50;13.70;;;1.70;99.90;;;;;;5034180;28;20040;-49
2023/12/08 04:35:58;;;;;;;33.10;13.90;;;2.40;99.90;;;;;;5033503;28;20037;-50
2023/12/08 04:38:23;;;;;;;32.78;14.70;;;1.60;99.90;;;;;;5033776;28;20037;-51
2023/12/08 04:40:49;;;;;;;31.60;13.57;;;2.40;99.90;;;;;;5034081;28;20045;-50
2023/12/08 04:43:15;;;;;;;31.30;13.35;;;2.20;99.90;;;;;;5034134;28;20053;-53
2023/12/08 04:45:41;;;;;;;33.88;15.45;;;1.80;99.90;;;;;;5033963;28;20048;-53
2023/12/08 04:48:07;;;;;;;31.88;13.40;;;2.30;99.90;;;;;;5034177;28;20504;-49
2023/12/08 04:50:33;;;;;;;39.40;14.15;;;1.90;99.90;;;;;;5034154;28;20029;-53
2023/12/08 04:52:58;;;;;;;32.22;14.20;;;2.10;99.90;;;;;;5034071;28;20037;-52
2023/12/08 04:55:24;;;;;;;33.13;14.35;;;2.00;99.90;;;;;;5034102;28;20041;-51
2023/12/08 04:57:50;;;;;;;34.25;14.95;;;2.30;99.90;;;;;;5034129;28;20037;-50
2023/12/08 05:00:16;;;;;;;33.85;14.75;;;1.50;99.90;;;;;;5033723;28;20509;-50
2023/12/08 05:02:42;;;;;;;36.47;14.63;;;1.70;99.90;;;;;;5033845;28;20029;-51
2023/12/08 05:05:08;;;;;;;36.05;14.65;;;1.50;99.90;;;;;;5032401;28;20125;-49
2023/12/08 05:07:33;;;;;;;33.40;13.75;;;2.00;99.90;;;;;;5033818;28;20034;-49
2023/12/08 05:10:00;;;;;;;35.08;14.27;;;2.20;99.90;;;;;;5033373;28;20040;-51
2023/12/08 05:12:26;;;;;;;33.20;13.45;;;2.10;99.90;;;;;;5032347;28;20104;-52
2023/12/08 05:14:52;;;;;;;39.05;15.13;;;2.20;99.90;;;;;;5033871;28;20049;-53
2023/12/08 05:17:17;;;;;;;33.97;14.13;;;2.10;99.90;;;;;;5033189;28;20382;-53
2023/12/08 05:19:43;;;;;;;32.30;14.43;;;1.50;99.90;;;;;;5033449;28;20049;-51
2023/12/08 05:22:08;;;;;;;37.20;15.60;;;1.40;99.90;;;;;;5033202;28;20034;-52
2023/12/08 05:24:34;;;;;;;34.28;14.68;;;1.40;99.90;;;;;;5033306;28;20091;-50
2023/12/08 05:27:00;;;;;;;36.15;15.05;;;2.20;99.90;;;;;;5031289;28;20120;-50
2023/12/08 05:29:25;;;;;;;38.88;15.15;;;2.40;99.90;;;;;;5032125;28;20044;-53
2023/12/08 05:31:51;;;;;;;34.92;14.63;;;2.30;99.90;;;;;;5033285;28;20037;-52
2023/12/08 05:34:17;;;;;;;33.67;15.15;;;1.60;99.90;;;;;;5033417;28;20041;-52
2023/12/08 05:36:42;;;;;;;36.63;15.52;;;2.30;99.90;;;;;;5033289;28;20037;-55
2023/12/08 05:39:09;;;;;;;40.25;15.60;;;2.30;99.90;;;;;;5033005;28;20037;-52
2023/12/08 05:41:35;;;;;;;37.90;15.93;;;1.70;99.90;;;;;;5032871;28;20048;-54
2023/12/08 05:44:01;;;;;;;37.85;15.90;;;2.30;99.90;;;;;;5032598;28;20112;-50
2023/12/08 05:46:26;;;;;;;35.63;15.13;;;2.10;99.90;;;;;;5032470;28;20188;-52
2023/12/08 05:48:53;;;;;;;38.58;14.77;;;1.40;99.90;;;;;;5031396;28;20583;-53
2023/12/08 05:51:18;;;;;;;42.47;16.30;;;1.40;99.90;;;;;;5032436;28;20163;-53
2023/12/08 05:53:44;;;;;;;35.95;15.18;;;2.20;99.90;;;;;;5032452;28;20132;-50
2023/12/08 05:56:11;;;;;;;36.28;15.13;;;2.00;99.90;;;;;;5033137;28;20049;-50
2023/12/08 05:58:37;;;;;;;41.63;17.33;;;2.20;99.90;;;;;;5032791;28;20041;-53
2023/12/08 06:01:02;;;;;;;39.28;16.02;;;2.10;99.90;;;;;;5030330;28;20056;-52
2023/12/08 06:03:28;;;;;;;36.88;16.35;;;1.90;99.90;;;;;;5032575;28;20052;-53
2023/12/08 06:05:54;;;;;;;40.25;16.80;;;2.10;99.90;;;;;;5033087;28;20029;-52
2023/12/08 06:08:20;;;;;;;36.60;15.13;;;1.20;99.90;;;;;;5030422;28;20107;-53
2023/12/08 06:10:46;;;;;;;37.38;15.02;;;2.00;99.90;;;;;;5032529;28;20092;-54
2023/12/08 06:13:13;;;;;;;37.78;15.07;;;1.80;99.90;;;;;;5032038;28;20044;-53
2023/12/08 06:15:39;;;;;;;35.13;15.38;;;1.50;99.90;;;;;;5032182;28;20159;-53
2023/12/08 06:18:05;;;;;;;37.50;16.13;;;2.20;99.90;;;;;;5032142;28;20041;-51
2023/12/08 06:20:30;;;;;;;39.83;15.27;;;1.70;99.90;;;;;;5032401;28;20037;-53
2023/12/08 06:22:56;;;;;;;37.28;14.90;;;1.30;99.90;;;;;;5032332;28;20404;-53
2023/12/08 06:25:22;;;;;;;45.65;17.85;;;2.20;99.90;;;;;;5031952;28;20060;-52
2023/12/08 06:27:47;;;;;;;43.90;16.55;;;1.30;99.90;;;;;;5032141;28;20040;-53
2023/12/08 06:30:13;;;;;;;46.40;17.33;;;1.20;99.90;;;;;;5031990;28;20041;-53
2023/12/08 06:32:39;;;;;;;41.53;15.52;;;1.90;99.90;;;;;;5029566;28;20041;-54
2023/12/08 06:35:05;;;;;;;46.65;18.38;;;2.10;99.90;;;;;;5032007;28;20048;-52
2023/12/08 06:37:31;;;;;;;45.50;17.40;;;1.30;99.90;;;;;;5032202;28;20441;-52
2023/12/08 06:39:56;;;;;;;40.88;16.02;;;2.30;99.90;;;;;;5031423;28;20034;-52
2023/12/08 06:42:22;;;;;;;44.10;15.77;;;1.20;99.90;;;;;;5031477;28;20041;-53
2023/12/08 06:44:48;;;;;;;40.53;16.48;;;2.30;99.90;;;;;;5031670;28;20034;-52
2023/12/08 06:47:13;;;;;;;45.35;17.17;;;2.10;99.90;;;;;;5032142;28;20036;-53
2023/12/08 06:49:39;;;;;;;43.90;17.80;;;2.00;99.90;;;;;;5031902;28;20037;-54
2023/12/08 06:52:05;;;;;;;52.35;17.20;;;1.30;99.90;;;;;;5031669;28;20045;-55
2023/12/08 06:54:31;;;;;;;47.50;17.67;;;1.60;99.90;;;;;;5031452;28;20049;-51
2023/12/08 06:56:57;;;;;;;43.78;16.55;;;2.00;99.90;;;;;;5031768;28;20076;-50
2023/12/08 06:59:22;;;;;;;42.33;16.80;;;1.40;99.90;;;;;;5031542;28;20064;-53
2023/12/08 07:01:48;;;;;;;43.97;17.20;;;1.20;99.90;;;;;;5031424;28;20050;-49
2023/12/08 07:04:14;;;;;;;46.47;16.98;;;2.30;99.90;;;;;;5031626;28;20026;-56
2023/12/08 07:06:40;;;;;;;45.85;16.75;;;2.10;99.90;;;;;;5031486;28;20033;-53
2023/12/08 07:09:06;;;;;;;42.90;16.20;;;1.30;99.90;;;;;;5031143;28;20037;-51
2023/12/08 07:11:33;;;;;;;46.92;18.30;;;2.30;99.90;;;;;;5029157;28;20175;-55
2023/12/08 07:13:58;;;;;;;45.78;17.42;;;2.20;99.90;;;;;;5031385;28;20036;-53
2023/12/08 07:16:24;;;;;;;43.38;17.55;;;2.20;99.90;;;;;;5012797;28;20444;-50
2023/12/08 07:18:50;;;;;;;48.72;17.40;;;2.40;99.90;;;;;;5030527;28;20111;-55
2023/12/08 07:21:15;;;;;;;40.90;16.30;;;2.00;99.90;;;;;;5030889;28;20426;-54
2023/12/08 07:23:42;;;;;;;39.65;17.17;;;1.40;99.90;;;;;;5029367;28;20068;-51
2023/12/08 07:26:10;;;;;;;44.22;16.70;;;2.20;99.90;;;;;;5029879;28;20060;-53
2023/12/08 07:28:36;;;;;;;45.97;16.73;;;1.90;99.90;;;;;;5029236;28;20041;-53
2023/12/08 07:31:02;;;;;;;45.53;15.93;;;1.60;99.90;;;;;;5031030;28;20489;-52
2023/12/08 07:33:27;;;;;;;42.47;17.25;;;2.10;99.90;;;;;;5030954;28;20040;-52
2023/12/08 07:35:53;;;;;;;43.47;16.80;;;2.40;99.90;;;;;;5028953;28;20049;-50
2023/12/08 07:38:19;;;;;;;39.50;15.75;;;2.20;99.90;;;;;;5030235;28;20041;-51
2023/12/08 07:40:45;;;;;;;42.00;16.42;;;2.40;99.90;;;;;;5030881;28;20045;-53
2023/12/08 07:43:11;;;;;;;39.00;15.18;;;1.40;99.90;;;;;;5029230;28;20087;-51
2023/12/08 07:45:37;;;;;;;39.85;16.30;;;1.40;99.90;;;;;;5030762;28;20037;-56
2023/12/08 07:48:03;;;;;;;44.45;17.35;;;2.00;99.90;;;;;;5031088;28;20099;-56
2023/12/08 07:50:29;;;;;;;43.63;18.20;;;2.40;99.90;;;;;;5030850;28;20049;-52
2023/12/08 07:52:55;;;;;;;43.50;17.33;;;2.20;99.90;;;;;;5030489;28;20041;-56
2023/12/08 07:55:20;;;;;;;44.95;17.15;;;1.90;99.90;;;;;;5031083;28;20037;-54
2023/12/08 07:57:46;;;;;;;44.80;16.67;;;1.50;99.90;;;;;;5030599;28;20568;-53
2023/12/08 08:00:12;;;;;;;42.08;17.25;;;2.50;99.90;;;;;;5020239;28;20041;-55
2023/12/08 08:02:38;;;;;;;38.58;15.27;;;1.50;99.90;;;;;;5026050;28;20037;-54
2023/12/08 08:05:07;;;;;;;38.53;16.10;;;1.50;99.90;;;;;;5030675;28;20449;-54
2023/12/08 08:07:32;;;;;;;50.83;16.42;;;2.50;99.90;;;;;;5030635;28;20037;-54
2023/12/08 08:09:58;;;;;;;47.58;16.73;;;2.50;99.90;;;;;;5028823;28;20040;-55
2023/12/08 08:12:24;;;;;;;45.75;16.95;;;1.60;99.90;;;;;;5030206;28;20095;-55
2023/12/08 08:14:49;;;;;;;43.80;16.77;;;1.40;99.90;;;;;;5020700;28;20033;-55
2023/12/08 08:17:15;;;;;;;42.60;16.58;;;2.50;99.90;;;;;;5022295;28;20053;-49
2023/12/08 08:19:41;;;;;;;43.75;16.85;;;2.90;99.90;;;;;;5023079;28;20049;-56
2023/12/08 08:22:07;;;;;;;42.92;16.52;;;2.00;99.90;;;;;;5023155;28;20393;-54
2023/12/08 08:24:33;;;;;;;48.95;18.08;;;1.50;99.90;;;;;;5023509;28;20401;-54
2023/12/08 08:26:59;;;;;;;50.78;18.13;;;2.40;99.90;;;;;;5023468;28;20033;-55
2023/12/08 08:29:26;;;;;;;37.42;16.95;;;2.70;99.90;;;;;;5022694;28;20054;-54
2023/12/08 08:31:52;;;;;;;43.95;17.48;;;2.50;99.90;;;;;;5023143;28;20493;-54
2023/12/08 08:34:18;;;;;;;52.63;18.92;;;2.10;99.90;;;;;;5022591;28;20033;-55
2023/12/08 08:36:44;;;;;;;48.53;17.95;;;2.00;99.90;;;;;;5023441;28;20041;-52
2023/12/08 08:39:10;;;;;;;51.17;19.23;;;3.30;99.90;;;;;;5023066;28;20044;-56
2023/12/08 08:41:36;;;;;;;45.78;18.65;;;2.70;99.90;;;;;;5022582;28;20033;-54
2023/12/08 08:44:01;;;;;;;47.22;17.77;;;1.70;99.90;;;;;;5022824;28;20478;-52
2023/12/08 08:46:27;;;;;;;48.33;18.38;;;2.00;99.90;;;;;;5023250;28;20504;-53
2023/12/08 08:48:54;;;;;;;48.92;19.80;;;1.50;99.90;;;;;;5023276;28;20134;-51
2023/12/08 08:51:21;;;;;;;51.15;19.65;;;2.40;99.90;;;;;;5023138;28;20098;-54
2023/12/08 08:53:49;;;;;;;52.15;18.55;;;1.80;99.90;;;;;;5022720;28;20037;-54
2023/12/08 08:56:16;;;;;;;52.45;19.58;;;2.50;99.90;;;;;;5022763;28;20139;-54
2023/12/08 08:58:41;;;;;;;53.47;19.80;;;1.70;99.90;;;;;;5018925;28;20035;-52
2023/12/08 09:01:07;;;;;;;53.95;20.70;;;2.70;99.90;;;;;;5019523;28;20492;-54
2023/12/08 09:03:33;;;;;;;45.55;18.17;;;2.40;99.90;;;;;;5021867;28;20163;-55
2023/12/08 09:05:58;;;;;;;53.03;19.40;;;2.80;99.90;;;;;;5025377;28;20029;-53
2023/12/08 09:08:24;;;;;;;58.00;19.73;;;1.80;99.90;;;;;;5025727;28;20507;-53
2023/12/08 09:10:50;;;;;;;55.20;21.83;;;2.90;99.90;;;;;;5023918;28;20516;-56
2023/12/08 09:13:16;;;;;;;53.80;20.70;;;1.70;99.90;;;;;;5025319;28;20167;-53
2023/12/08 09:15:43;;;;;;;53.40;20.58;;;2.90;99.90;;;;;;5025432;28;20046;-56
2023/12/08 09:18:09;;;;;;;59.13;21.05;;;2.30;99.90;;;;;;5024409;28;22600;-52
2023/12/08 09:20:38;;;;;;;55.85;22.20;;;1.80;99.90;;;;;;5025477;28;20040;-51
2023/12/08 09:23:05;;;;;;;53.45;21.08;;;2.70;99.90;;;;;;5025815;28;20029;-54
2023/12/08 09:25:31;;;;;;;58.90;21.60;;;2.50;99.90;;;;;;5025634;28;20037;-55
2023/12/08 09:27:57;;;;;;;59.80;22.50;;;2.00;99.90;;;;;;5023909;28;20461;-55
2023/12/08 09:30:23;;;;;;;59.17;21.52;;;2.30;99.90;;;;;;5025477;28;20697;-56
2023/12/08 09:32:50;;;;;;;67.38;22.13;;;4.00;99.90;;;;;;5025571;28;20045;-56
2023/12/08 09:35:18;;;;;;;64.30;21.38;;;3.00;99.90;;;;;;5025351;28;20575;-54
2023/12/08 09:37:43;;;;;;;62.00;20.80;;;2.50;99.90;;;;;;5025165;28;20041;-54
2023/12/08 09:40:13;;;;;;;66.47;22.73;;;2.90;99.90;;;;;;5025708;28;20491;-54
2023/12/08 09:42:43;;;;;;;62.05;21.90;;;3.00;99.90;;;;;;5025586;28;20046;-54
2023/12/08 09:45:10;;;;;;;69.45;21.58;;;3.10;99.90;;;;;;5025221;28;20179;-54
2023/12/08 09:47:36;;;;;;;56.70;21.27;;;2.80;99.90;;;;;;5024528;28;20033;-54
2023/12/08 09:50:09;;;;;;;69.57;22.67;;;2.80;99.90;;;;;;5025457;28;20531;-55
2023/12/08 09:52:35;;;;;;;60.83;20.50;;;3.00;99.90;;;;;;5024496;28;20049;-54
2023/12/08 09:55:03;;;;;;;67.63;20.70;;;2.30;99.90;;;;;;5024209;28;20033;-53
2023/12/08 09:57:31;;;;;;;76.32;24.77;;;2.90;99.90;;;;;;5023672;28;20033;-52
2023/12/08 09:59:59;;;;;;;61.85;21.35;;;2.00;99.90;;;;;;5023489;28;20148;-55
2023/12/08 10:02:26;;;;;;;83.18;24.73;;;2.10;99.90;;;;;;5023797;28;20504;-52
2023/12/08 10:04:52;;;;;;;72.53;23.40;;;2.70;99.90;;;;;;5023122;28;20548;-50
2023/12/08 10:07:19;;;;;;;74.72;24.17;;;2.80;99.90;;;;;;5025419;28;20469;-52
2023/12/08 10:09:45;;;;;;;74.90;24.08;;;3.30;99.90;;;;;;5024092;28;20116;-55
2023/12/08 10:12:10;;;;;;;82.32;25.08;;;2.20;99.90;;;;;;5025204;28;20124;-52
2023/12/08 10:14:56;;;;;;;83.13;24.25;;;2.10;99.90;;;;;;5023863;28;20044;-54
2023/12/08 10:17:23;;;;;;;92.97;25.85;;;3.20;99.90;;;;;;5023986;28;20343;-52
2023/12/08 10:19:51;;;;;;;81.05;24.88;;;3.30;99.90;;;;;;5024731;28;20045;-51
2023/12/08 10:22:17;;;;;;;81.57;25.27;;;2.20;99.90;;;;;;5022089;28;20049;-51
2023/12/08 10:24:44;;;;;;;85.85;26.08;;;2.70;99.90;;;;;;5023850;28;20041;-53
2023/12/08 10:27:10;;;;;;;97.05;27.17;;;2.20;99.90;;;;;;5024440;28;20072;-54
2023/12/08 10:29:36;;;;;;;80.88;26.10;;;3.30;99.90;;;;;;5006358;28;20065;-55
2023/12/08 10:32:04;;;;;;;102.50;26.00;;;2.60;99.90;;;;;;5024215;28;20051;-55
2023/12/08 10:34:30;;;;;;;93.28;27.35;;;3.20;99.90;;;;;;5020129;28;20034;-52
2023/12/08 10:36:57;;;;;;;106.95;28.15;;;3.50;99.90;;;;;;5022448;28;20041;-52
2023/12/08 10:39:24;;;;;;;103.72;26.35;;;3.10;99.90;;;;;;5023302;28;20091;-54
2023/12/08 10:41:51;;;;;;;104.20;27.58;;;2.40;99.90;;;;;;5023705;28;20111;-54
2023/12/08 10:44:23;;;;;;;107.47;28.08;;;2.70;99.90;;;;;;5028207;28;20490;-54
2023/12/08 10:46:49;;;;;;;119.53;29.25;;;2.70;99.90;;;;;;5029145;28;20080;-53
2023/12/08 10:49:21;;;;;;;113.78;30.85;;;2.60;99.90;;;;;;5029871;28;20069;-55
2023/12/08 10:51:48;;;;;;;131.85;29.77;;;3.00;99.90;;;;;;5030249;28;20037;-55
2023/12/08 10:54:16;;;;;;;129.77;31.27;;;2.60;99.90;;;;;;5031620;28;20533;-54
2023/12/08 10:56:46;;;;;;;124.85;30.23;;;2.70;99.90;;;;;;5027823;28;20136;-50
2023/12/08 10:59:21;;;;;;;109.55;29.75;;;3.30;99.90;;;;;;5031041;28;20046;-54
2023/12/08 11:01:48;;;;;;;114.43;29.98;;;3.60;99.90;;;;;;5028020;28;20053;-51
2023/12/08 11:04:19;;;;;;;121.72;29.30;;;4.10;99.90;;;;;;5025150;28;20140;-51
2023/12/08 11:07:02;;;;;;;141.23;31.00;;;2.80;99.90;;;;;;5030151;28;20079;-55
2023/12/08 11:09:31;;;;;;;122.55;31.52;;;2.80;99.90;;;;;;5024740;28;20128;-55
2023/12/08 11:12:03;;;;;;;136.68;31.65;;;3.20;99.90;;;;;;5029525;28;20045;-52
2023/12/08 11:14:40;;;;;;;141.57;31.63;;;3.90;99.90;;;;;;5029763;28;20045;-53
2023/12/08 11:17:41;;;;;;;138.65;31.67;;;3.10;99.90;;;;;;5031172;28;20049;-50
2023/12/08 11:20:09;;;;;;;124.13;28.63;;;3.70;99.90;;;;;;5031175;28;20112;-52
2023/12/08 11:22:35;;;;;;;120.13;29.27;;;2.90;99.90;;;;;;5029913;28;20037;-55
2023/12/08 11:25:13;;;;;;;153.10;34.22;;;2.90;99.90;;;;;;5030244;28;20053;-54
2023/12/08 11:27:49;;;;;;;135.00;30.88;;;4.00;99.90;;;;;;5021532;28;20469;-53
2023/12/08 11:30:32;;;;;;;130.13;30.50;;;3.80;99.90;;;;;;5031182;28;20400;-50
2023/12/08 11:33:19;;;;;;;130.30;30.58;;;3.90;99.90;;;;;;5030545;28;20404;-52
2023/12/08 11:35:51;;;;;;;135.63;31.90;;;3.20;99.90;;;;;;5030824;28;20034;-55
2023/12/08 11:38:27;;;;;;;138.50;31.15;;;4.10;99.90;;;;;;5029199;28;20107;-53
2023/12/08 11:40:56;;;;;;;145.40;31.88;;;3.10;99.90;;;;;;5030760;28;20069;-53
2023/12/08 11:43:23;;;;;;;163.95;32.30;;;4.40;99.90;;;;;;5026488;28;20050;-54
2023/12/08 11:45:49;;;;;;;149.23;30.40;;;3.10;99.90;;;;;;5012229;28;20750;-54
2023/12/08 11:48:15;;;;;;;148.57;32.45;;;3.70;99.90;;;;;;5015118;28;20029;-49
2023/12/08 11:50:41;;;;;;;137.00;30.55;;;3.10;99.90;;;;;;5021904;28;20037;-52
2023/12/08 11:53:07;;;;;;;157.55;32.47;;;3.10;99.90;;;;;;5029139;28;20037;-54
2023/12/08 11:55:33;;;;;;;155.27;32.95;;;3.40;99.90;;;;;;5027850;28;20049;-50
2023/12/08 11:58:01;;;;;;;163.88;32.50;;;3.50;99.90;;;;;;5027808;28;20477;-53
2023/12/08 12:00:29;;;;;;;148.18;35.88;;;4.20;99.90;;;;;;5026655;28;20489;-55
2023/12/08 12:02:57;;;;;;;161.95;34.35;;;3.30;99.90;;;;;;5027203;28;20053;-52
2023/12/08 12:05:23;;;;;;;128.63;31.13;;;4.40;99.90;;;;;;5028599;28;20040;-54
2023/12/08 12:07:50;;;;;;;137.15;31.73;;;4.10;99.90;;;;;;5028200;28;20045;-53
2023/12/08 12:10:24;;;;;;;129.80;31.08;;;4.20;99.90;;;;;;5026244;28;20493;-51
2023/12/08 12:12:53;;;;;;;129.20;30.70;;;3.60;99.90;;;;;;5026533;28;20084;-54
2023/12/08 12:15:20;;;;;;;127.43;29.92;;;3.40;99.90;;;;;;5026294;28;20096;-51
2023/12/08 12:17:47;;;;;;;145.73;30.45;;;3.60;99.90;;;;;;5028231;28;20112;-52
2023/12/08 12:20:13;;;;;;;147.68;32.00;;;4.10;99.90;;;;;;5027546;28;20103;-54
2023/12/08 12:22:39;;;;;;;137.48;30.63;;;4.00;99.90;;;;;;5027322;28;20038;-52
2023/12/08 12:25:10;;;;;;;126.15;29.27;;;4.50;99.90;;;;;;5027634;28;20121;-50
2023/12/08 12:27:47;;;;;;;138.20;30.95;;;3.60;99.90;;;;;;5025324;28;20564;-51
2023/12/08 12:30:13;;;;;;;132.05;30.63;;;3.70;99.90;;;;;;5022485;28;20049;-52
2023/12/08 12:32:40;;;;;;;141.95;30.00;;;3.50;99.90;;;;;;5024983;28;20045;-51